Time;durP1;ratioP1;P1;durP2;ratioP2;P2;SDS_P1;SDS_P2;PMS_P1;PMS_P2;Temp;Humidity;BMP_temperature;BMP_pressure;BME280_temperature;BME280_humidity;BME280_pressure;Samples;Min_cycle;Max_cycle;Signal;HPM_P1;HPM_P2
2021/03/13 00:01:56;;;;;;;2.67;0.68;;;17.80;58.20;;;;;;10478411;28;20525;-57
2021/03/13 00:06:57;;;;;;;1.98;0.70;;;17.80;58.10;;;;;;10463453;28;20115;-55
2021/03/13 00:11:57;;;;;;;1.65;0.60;;;17.80;58.00;;;;;;10498481;28;20032;-56
2021/03/13 00:16:58;;;;;;;1.73;0.60;;;17.80;58.00;;;;;;10489901;28;20552;-56
2021/03/13 00:21:59;;;;;;;2.05;0.82;;;17.80;58.60;;;;;;10456636;28;20108;-56
2021/03/13 00:26:59;;;;;;;1.77;0.70;;;17.80;58.00;;;;;;10456406;28;20071;-56
2021/03/13 00:32:00;;;;;;;2.15;0.65;;;17.80;57.90;;;;;;10495800;28;20160;-55
2021/03/13 00:37:01;;;;;;;2.30;0.88;;;17.80;57.90;;;;;;10483318;28;20135;-55
2021/03/13 00:42:02;;;;;;;1.58;0.68;;;17.80;58.00;;;;;;10490179;28;20401;-55
2021/03/13 00:47:02;;;;;;;1.45;0.80;;;17.80;58.00;;;;;;10458034;28;20081;-56
2021/03/13 00:52:03;;;;;;;1.73;0.70;;;17.80;57.90;;;;;;10496919;28;20039;-55
2021/03/13 00:57:04;;;;;;;2.08;0.65;;;17.80;57.80;;;;;;10488884;28;20041;-56
2021/03/13 01:02:05;;;;;;;2.90;0.52;;;17.80;57.70;;;;;;10462253;28;20020;-57
2021/03/13 01:07:06;;;;;;;3.10;1.10;;;17.80;57.70;;;;;;10485971;28;20068;-56
2021/03/13 01:12:07;;;;;;;1.42;0.73;;;17.80;57.70;;;;;;10455114;28;20479;-56
2021/03/13 01:17:08;;;;;;;2.50;0.85;;;17.80;57.70;;;;;;10465137;28;20135;-56
2021/03/13 01:22:09;;;;;;;2.38;0.80;;;17.80;57.70;;;;;;10494800;28;20040;-56
2021/03/13 01:27:10;;;;;;;2.85;0.90;;;17.80;57.60;;;;;;10485159;28;20040;-55
2021/03/13 01:32:10;;;;;;;1.80;1.02;;;17.80;57.60;;;;;;10495583;28;20078;-56
2021/03/13 01:37:17;;;;;;;2.83;0.90;;;17.80;57.60;;;;;;10482845;28;20041;-56
2021/03/13 01:42:18;;;;;;;2.38;0.90;;;17.80;57.60;;;;;;10487159;28;20116;-56
2021/03/13 01:47:24;;;;;;;2.33;0.80;;;17.80;57.60;;;;;;10460356;28;20115;-56
2021/03/13 01:52:25;;;;;;;1.92;0.70;;;17.80;57.60;;;;;;10495920;28;20115;-56
2021/03/13 01:57:26;;;;;;;1.63;0.55;;;17.80;57.60;;;;;;10478390;28;20029;-56
2021/03/13 02:02:27;;;;;;;2.25;1.10;;;17.80;57.50;;;;;;10495850;28;20025;-56
2021/03/13 02:07:41;;;;;;;1.48;0.50;;;17.80;57.40;;;;;;10486128;28;20489;-57
2021/03/13 02:13:25;;;;;;;1.88;0.80;;;17.80;57.40;;;;;;10474920;28;20036;-57
2021/03/13 02:19:19;;;;;;;2.45;0.82;;;17.80;57.40;;;;;;10499329;28;20032;-57
2021/03/13 02:24:29;;;;;;;1.40;0.65;;;17.80;57.70;;;;;;10495175;28;20392;-57
2021/03/13 02:29:51;;;;;;;4.72;0.70;;;17.90;58.70;;;;;;10469962;28;20116;-56
2021/03/13 02:35:01;;;;;;;1.02;0.60;;;17.90;59.00;;;;;;10483477;28;20033;-57
2021/03/13 02:40:05;;;;;;;2.05;0.80;;;18.00;59.90;;;;;;10488819;28;20358;-56
2021/03/13 02:45:07;;;;;;;1.98;0.80;;;18.00;60.10;;;;;;10469796;28;20512;-56
2021/03/13 02:50:11;;;;;;;3.17;0.80;;;17.90;60.10;;;;;;10488259;28;20040;-56
2021/03/13 02:55:14;;;;;;;1.90;0.65;;;17.90;60.10;;;;;;10500487;28;20036;-56
2021/03/13 03:00:18;;;;;;;1.27;0.60;;;17.90;60.40;;;;;;10463508;28;20124;-57
2021/03/13 03:05:22;;;;;;;1.52;0.52;;;17.80;60.30;;;;;;10459769;28;20099;-57
2021/03/13 03:10:27;;;;;;;0.60;0.35;;;17.90;60.40;;;;;;10495287;28;20388;-57
2021/03/13 03:15:32;;;;;;;1.38;0.80;;;17.80;60.30;;;;;;10500540;28;20057;-54
2021/03/13 03:20:34;;;;;;;1.52;0.52;;;17.80;60.20;;;;;;10460713;28;20022;-54
2021/03/13 03:25:35;;;;;;;2.30;0.80;;;17.80;60.20;;;;;;10499005;28;20104;-54
2021/03/13 03:30:36;;;;;;;1.85;0.55;;;17.80;60.10;;;;;;10460137;28;20481;-57
2021/03/13 03:35:37;;;;;;;0.95;0.50;;;17.80;60.10;;;;;;10458801;28;20060;-57
2021/03/13 03:40:40;;;;;;;2.05;0.63;;;17.80;60.00;;;;;;10487915;28;20595;-56
2021/03/13 03:45:45;;;;;;;1.00;0.57;;;17.80;59.90;;;;;;10463502;28;20040;-56
2021/03/13 03:50:46;;;;;;;1.80;0.57;;;17.80;59.80;;;;;;10492428;28;20115;-56
2021/03/13 03:55:50;;;;;;;1.80;0.60;;;17.80;59.70;;;;;;10497946;28;20025;-56
2021/03/13 04:00:53;;;;;;;1.55;0.70;;;17.80;59.60;;;;;;10490363;28;20558;-56
2021/03/13 04:05:55;;;;;;;1.95;0.68;;;17.80;59.50;;;;;;10456312;28;20029;-55
2021/03/13 04:10:57;;;;;;;1.63;0.82;;;17.80;59.40;;;;;;10455895;28;20033;-56
2021/03/13 04:15:58;;;;;;;2.78;0.50;;;17.80;59.30;;;;;;10455387;28;20110;-57
2021/03/13 04:20:59;;;;;;;1.02;0.40;;;17.80;59.20;;;;;;10482293;28;20095;-57
2021/03/13 04:26:00;;;;;;;2.50;0.80;;;17.80;59.20;;;;;;10496245;28;20032;-56
2021/03/13 04:31:02;;;;;;;1.33;0.68;;;17.80;59.10;;;;;;10456020;28;20431;-57
2021/03/13 04:36:04;;;;;;;2.17;0.80;;;17.80;59.00;;;;;;10481212;28;20035;-56
2021/03/13 04:41:07;;;;;;;0.90;0.40;;;17.80;58.90;;;;;;10484968;28;20025;-56
2021/03/13 04:46:08;;;;;;;1.60;0.70;;;17.80;58.80;;;;;;10454823;28;20076;-57
2021/03/13 04:51:09;;;;;;;1.42;0.60;;;17.80;58.70;;;;;;10491845;28;20028;-57
2021/03/13 04:56:11;;;;;;;1.83;0.60;;;17.80;58.60;;;;;;10481626;28;20029;-56
2021/03/13 05:01:12;;;;;;;1.38;0.70;;;17.80;58.60;;;;;;10468100;28;20040;-55
2021/03/13 05:06:13;;;;;;;1.38;0.50;;;17.80;58.60;;;;;;10467240;28;20054;-56
2021/03/13 05:11:14;;;;;;;2.28;0.80;;;17.80;58.50;;;;;;10463287;28;20540;-57
2021/03/13 05:16:15;;;;;;;1.08;0.43;;;17.80;58.40;;;;;;10467298;28;20045;-56
2021/03/13 05:21:15;;;;;;;1.23;0.65;;;17.80;58.40;;;;;;10465566;28;20033;-56
2021/03/13 05:26:17;;;;;;;2.47;0.50;;;17.80;58.40;;;;;;10465393;28;20118;-57
2021/03/13 05:31:17;;;;;;;2.90;0.50;;;17.80;58.40;;;;;;10469517;28;20048;-56
2021/03/13 05:36:18;;;;;;;1.00;0.55;;;17.80;58.30;;;;;;10467409;28;20033;-56
2021/03/13 05:41:19;;;;;;;1.27;0.40;;;17.80;58.20;;;;;;10471579;28;20036;-55
2021/03/13 05:46:20;;;;;;;0.95;0.47;;;17.80;58.20;;;;;;10475397;28;20106;-55
2021/03/13 05:51:21;;;;;;;2.78;0.60;;;17.80;58.20;;;;;;10487788;28;20442;-56
2021/03/13 05:56:21;;;;;;;0.70;0.55;;;17.80;58.10;;;;;;10480986;28;20045;-57
2021/03/13 06:01:22;;;;;;;0.75;0.30;;;17.80;58.10;;;;;;10477064;28;20712;-57
2021/03/13 06:06:25;;;;;;;0.60;0.32;;;17.80;58.00;;;;;;10456850;28;20115;-57
2021/03/13 06:11:26;;;;;;;0.57;0.40;;;17.80;58.00;;;;;;10497158;28;20039;-56
2021/03/13 06:16:30;;;;;;;4.25;0.65;;;17.80;58.00;;;;;;10492599;28;20049;-57
2021/03/13 06:21:36;;;;;;;5.28;1.10;;;17.80;58.50;;;;;;10453849;28;20032;-56
2021/03/13 06:26:53;;;;;;;6.18;0.88;;;17.80;59.50;;;;;;10453221;28;20028;-56
2021/03/13 06:32:12;;;;;;;4.72;0.73;;;17.80;59.40;;;;;;10485219;28;20037;-55
2021/03/13 06:37:27;;;;;;;8.68;0.90;;;17.80;60.00;;;;;;10456931;28;20041;-55
2021/03/13 06:42:30;;;;;;;10.05;0.80;;;17.80;60.20;;;;;;10484769;28;20634;-56
2021/03/13 06:47:36;;;;;;;9.27;1.02;;;17.90;60.10;;;;;;10461840;28;20040;-57
2021/03/13 06:52:39;;;;;;;13.65;2.85;;;17.90;60.00;;;;;;10494898;28;20036;-57
2021/03/13 06:57:39;;;;;;;3.88;0.88;;;17.90;60.20;;;;;;10474713;28;20029;-57
2021/03/13 07:02:40;;;;;;;4.88;1.30;;;17.80;60.50;;;;;;10462966;28;20392;-58
2021/03/13 07:07:41;;;;;;;6.85;0.75;;;17.90;60.20;;;;;;10469025;28;20591;-59
2021/03/13 07:12:43;;;;;;;10.70;1.15;;;17.80;60.40;;;;;;10453112;28;20476;-56
2021/03/13 07:17:55;;;;;;;28.00;1.92;;;17.80;60.30;;;;;;10455564;28;20635;-56
2021/03/13 07:23:04;;;;;;;11.93;2.00;;;17.90;60.30;;;;;;10481150;28;20051;-56
2021/03/13 07:28:07;;;;;;;10.93;1.77;;;17.90;60.00;;;;;;10475479;28;20059;-54
2021/03/13 07:33:13;;;;;;;9.23;1.42;;;17.80;61.10;;;;;;10471834;28;20044;-54
2021/03/13 07:38:15;;;;;;;18.60;1.70;;;17.80;60.60;;;;;;10459038;28;20037;-55
2021/03/13 07:43:17;;;;;;;19.77;2.83;;;17.80;60.40;;;;;;10462630;28;20508;-56
2021/03/13 07:48:18;;;;;;;9.13;1.58;;;17.80;61.10;;;;;;10485723;28;20067;-57
2021/03/13 07:53:20;;;;;;;17.05;2.00;;;17.80;60.60;;;;;;10499481;28;20511;-59
2021/03/13 07:58:22;;;;;;;15.48;2.05;;;17.80;61.10;;;;;;10491152;28;20110;-57
2021/03/13 08:03:32;;;;;;;16.15;2.88;;;17.70;61.10;;;;;;10482534;28;20441;-57
2021/03/13 08:08:52;;;;;;;20.55;2.92;;;17.70;60.50;;;;;;10468191;28;20044;-57
2021/03/13 08:13:59;;;;;;;9.02;1.98;;;17.70;60.50;;;;;;10454635;28;20119;-57
2021/03/13 08:19:00;;;;;;;13.43;2.03;;;17.60;60.40;;;;;;10452306;28;20627;-55
2021/03/13 08:24:02;;;;;;;8.82;1.45;;;17.60;60.40;;;;;;10454220;28;20024;-56
2021/03/13 08:29:07;;;;;;;9.35;2.13;;;17.60;60.50;;;;;;10455920;28;20036;-57
2021/03/13 08:34:08;;;;;;;12.95;1.70;;;17.60;60.60;;;;;;10456950;28;20033;-57
2021/03/13 08:39:11;;;;;;;7.22;2.05;;;17.50;60.50;;;;;;10456765;28;20047;-57
2021/03/13 08:44:13;;;;;;;11.50;1.40;;;17.50;60.50;;;;;;10461931;28;20021;-57
2021/03/13 08:49:29;;;;;;;9.25;2.33;;;17.50;60.50;;;;;;10456532;28;20115;-57
2021/03/13 08:54:39;;;;;;;10.18;1.55;;;17.50;60.20;;;;;;10456278;28;20032;-57
2021/03/13 08:59:57;;;;;;;10.38;1.70;;;17.50;60.80;;;;;;10456094;28;20029;-57
2021/03/13 09:05:09;;;;;;;8.75;0.90;;;17.50;60.10;;;;;;10456099;28;20108;-57
2021/03/13 09:10:10;;;;;;;7.20;2.00;;;17.60;59.90;;;;;;10455887;28;20427;-56
2021/03/13 09:15:13;;;;;;;6.55;1.40;;;17.60;59.70;;;;;;10455276;28;20053;-57
2021/03/13 09:20:17;;;;;;;7.13;2.15;;;17.60;59.60;;;;;;10455888;28;20033;-57
2021/03/13 09:25:22;;;;;;;4.43;1.02;;;17.60;59.50;;;;;;10455415;28;20025;-56
2021/03/13 09:30:27;;;;;;;5.15;0.82;;;17.70;59.40;;;;;;10453689;28;20032;-56
2021/03/13 09:35:29;;;;;;;8.25;0.98;;;17.70;59.40;;;;;;10455724;28;20060;-56
2021/03/13 09:40:30;;;;;;;5.32;1.20;;;17.60;59.20;;;;;;10453740;28;20132;-57
2021/03/13 09:45:30;;;;;;;7.70;1.40;;;17.70;59.30;;;;;;10455838;28;20033;-55
2021/03/13 09:50:40;;;;;;;8.73;1.23;;;17.70;59.30;;;;;;10452973;28;20484;-57
2021/03/13 09:55:45;;;;;;;8.45;1.50;;;17.70;59.20;;;;;;10442937;28;20033;-56
2021/03/13 10:00:46;;;;;;;8.90;1.55;;;17.70;59.90;;;;;;10481211;28;20122;-56
2021/03/13 10:05:54;;;;;;;13.57;2.67;;;17.70;60.20;;;;;;10468296;28;20041;-58
2021/03/13 10:10:59;;;;;;;13.63;2.05;;;17.70;61.10;;;;;;10455027;28;20424;-56
2021/03/13 10:16:04;;;;;;;13.73;3.33;;;17.70;61.00;;;;;;10456299;28;20040;-55
2021/03/13 10:21:07;;;;;;;10.35;2.03;;;17.70;60.50;;;;;;10471862;28;20016;-55
2021/03/13 10:26:13;;;;;;;4.65;1.63;;;17.70;60.00;;;;;;10475114;28;20028;-55
2021/03/13 10:31:22;;;;;;;9.75;2.00;;;17.70;59.20;;;;;;10478648;28;20025;-54
2021/03/13 10:36:45;;;;;;;6.80;2.03;;;17.80;58.40;;;;;;10472853;28;20041;-55
2021/03/13 10:41:54;;;;;;;7.75;2.08;;;17.90;57.30;;;;;;10478528;28;20043;-56
2021/03/13 10:46:55;;;;;;;7.25;1.50;;;17.90;56.60;;;;;;10481268;28;20489;-56
2021/03/13 10:51:56;;;;;;;7.57;1.95;;;17.90;56.70;;;;;;10476221;28;20041;-56
2021/03/13 10:57:06;;;;;;;5.40;1.77;;;18.00;56.60;;;;;;10459300;28;20441;-56
2021/03/13 11:02:07;;;;;;;4.88;1.90;;;18.00;57.20;;;;;;10477860;28;20032;-55
2021/03/13 11:07:08;;;;;;;10.35;2.33;;;18.00;57.70;;;;;;10461797;28;20497;-56
2021/03/13 11:12:09;;;;;;;6.43;1.85;;;18.10;57.90;;;;;;10482711;28;20076;-56
2021/03/13 11:17:10;;;;;;;9.48;1.90;;;18.20;58.40;;;;;;10487003;28;20051;-55
2021/03/13 11:22:11;;;;;;;12.68;2.92;;;18.20;59.00;;;;;;10468318;28;20028;-56
2021/03/13 11:27:12;;;;;;;11.93;2.63;;;18.30;59.50;;;;;;10478643;28;20366;-56
2021/03/13 11:32:14;;;;;;;13.77;2.88;;;18.30;60.00;;;;;;10477134;28;20496;-56
2021/03/13 11:37:15;;;;;;;10.20;2.35;;;18.30;60.40;;;;;;10479058;28;20067;-56
2021/03/13 11:42:16;;;;;;;13.50;2.42;;;18.30;60.60;;;;;;10480498;28;20056;-56
2021/03/13 11:47:17;;;;;;;14.07;3.13;;;18.40;60.30;;;;;;10488321;28;20032;-56
2021/03/13 11:52:18;;;;;;;20.25;3.22;;;18.40;60.60;;;;;;10466805;28;20102;-55
2021/03/13 11:57:20;;;;;;;19.10;3.72;;;18.40;60.80;;;;;;10457964;28;20108;-54
2021/03/13 12:02:21;;;;;;;18.00;4.35;;;18.40;61.30;;;;;;10480494;28;20033;-54
2021/03/13 12:07:22;;;;;;;12.35;2.47;;;18.40;61.70;;;;;;10498901;28;20020;-55
2021/03/13 12:12:23;;;;;;;11.68;4.13;;;18.30;61.80;;;;;;10466109;28;20452;-54
2021/03/13 12:17:24;;;;;;;11.15;3.85;;;18.30;61.50;;;;;;10457211;28;20128;-55
2021/03/13 12:22:26;;;;;;;15.10;3.42;;;18.20;61.70;;;;;;10468736;28;20025;-54
2021/03/13 12:27:27;;;;;;;16.75;2.92;;;18.20;61.90;;;;;;10474926;28;20343;-56
2021/03/13 12:32:27;;;;;;;15.18;4.20;;;18.10;61.80;;;;;;10459367;28;20044;-55
2021/03/13 12:37:29;;;;;;;17.60;3.55;;;18.10;61.80;;;;;;10456260;28;20064;-54
2021/03/13 12:42:30;;;;;;;22.48;3.35;;;18.10;61.70;;;;;;10482809;28;20040;-58
2021/03/13 12:47:30;;;;;;;15.85;4.57;;;18.00;61.90;;;;;;10455759;28;20481;-53
2021/03/13 12:52:31;;;;;;;21.73;4.15;;;18.00;62.00;;;;;;10469053;28;20358;-54
2021/03/13 12:57:32;;;;;;;19.60;3.85;;;18.00;62.10;;;;;;10461680;28;20108;-54
2021/03/13 13:02:32;;;;;;;17.02;3.50;;;18.00;62.40;;;;;;10460955;28;20361;-54
2021/03/13 13:07:35;;;;;;;15.38;3.08;;;18.00;62.40;;;;;;10497058;28;20052;-55
2021/03/13 13:12:37;;;;;;;16.30;2.33;;;17.90;62.20;;;;;;10476008;28;20487;-52
2021/03/13 13:17:38;;;;;;;19.00;3.83;;;17.80;62.10;;;;;;10466654;28;20044;-56
2021/03/13 13:22:43;;;;;;;23.77;4.03;;;17.80;62.30;;;;;;10474755;28;20021;-54
2021/03/13 13:27:44;;;;;;;21.70;3.95;;;17.80;62.50;;;;;;10494934;28;20037;-55
2021/03/13 13:32:45;;;;;;;21.77;4.55;;;17.80;62.90;;;;;;10459250;28;20036;-55
2021/03/13 13:37:49;;;;;;;27.02;4.00;;;17.90;64.00;;;;;;10467390;28;20033;-55
2021/03/13 13:42:51;;;;;;;16.67;4.28;;;18.00;64.50;;;;;;10481602;28;20032;-52
2021/03/13 13:47:52;;;;;;;20.63;4.10;;;18.00;65.10;;;;;;10477780;28;20041;-53
2021/03/13 13:52:52;;;;;;;18.65;3.97;;;18.10;64.80;;;;;;10461280;28;20051;-56
2021/03/13 13:57:53;;;;;;;18.10;3.78;;;18.10;64.90;;;;;;10473351;28;20040;-55
2021/03/13 14:02:54;;;;;;;19.85;3.55;;;18.10;65.30;;;;;;10480130;28;20059;-51
2021/03/13 14:07:55;;;;;;;15.27;3.10;;;18.10;65.30;;;;;;10496369;28;20034;-52
2021/03/13 14:12:57;;;;;;;18.40;3.50;;;18.10;65.60;;;;;;10479719;28;20056;-56
2021/03/13 14:17:58;;;;;;;17.98;3.42;;;18.00;65.80;;;;;;10503247;28;20031;-55
2021/03/13 14:22:58;;;;;;;24.75;4.60;;;18.00;64.60;;;;;;10468559;28;20067;-56
2021/03/13 14:27:59;;;;;;;20.70;3.28;;;18.00;64.40;;;;;;10491323;28;20116;-55
2021/03/13 14:33:00;;;;;;;28.35;3.53;;;17.90;63.80;;;;;;10461025;28;20037;-55
2021/03/13 14:38:01;;;;;;;17.42;4.32;;;17.90;64.50;;;;;;10460865;28;20061;-54
2021/03/13 14:43:02;;;;;;;23.80;3.88;;;17.90;64.90;;;;;;10478973;28;20033;-55
2021/03/13 14:48:03;;;;;;;20.98;3.72;;;17.90;65.00;;;;;;10462304;28;20068;-55
2021/03/13 14:53:03;;;;;;;26.77;4.88;;;18.00;64.90;;;;;;10464420;28;20063;-54
2021/03/13 14:58:04;;;;;;;17.73;2.92;;;17.90;65.00;;;;;;10477829;28;20090;-56
2021/03/13 15:03:05;;;;;;;18.63;3.03;;;17.90;63.80;;;;;;10498051;28;20508;-56
2021/03/13 15:08:06;;;;;;;22.67;3.03;;;17.80;63.30;;;;;;10474879;28;20412;-53
2021/03/13 15:13:06;;;;;;;25.25;3.05;;;17.80;63.60;;;;;;10471256;28;20138;-55
2021/03/13 15:18:08;;;;;;;16.55;2.63;;;17.70;63.70;;;;;;10459577;28;20033;-55
2021/03/13 15:23:09;;;;;;;14.77;3.00;;;17.70;64.00;;;;;;10457938;28;20492;-54
2021/03/13 15:28:09;;;;;;;14.75;3.42;;;17.70;64.30;;;;;;10461685;28;20162;-54
2021/03/13 15:33:10;;;;;;;15.20;3.33;;;17.70;64.00;;;;;;10473853;28;20103;-55
2021/03/13 15:38:11;;;;;;;13.75;2.83;;;17.70;63.40;;;;;;10470954;28;20060;-55
2021/03/13 15:43:11;;;;;;;7.60;2.10;;;17.60;63.10;;;;;;10474473;28;20039;-56
2021/03/13 15:48:12;;;;;;;13.10;2.75;;;17.50;62.90;;;;;;10464764;28;20111;-55
2021/03/13 15:53:13;;;;;;;15.48;2.63;;;17.50;62.90;;;;;;10458493;28;20025;-55
2021/03/13 15:58:13;;;;;;;15.75;3.65;;;17.50;62.90;;;;;;10457948;28;20037;-55
2021/03/13 16:03:14;;;;;;;6.57;1.90;;;17.50;62.90;;;;;;10457806;28;20480;-56
2021/03/13 16:08:15;;;;;;;9.60;3.28;;;17.40;62.70;;;;;;10457698;28;20044;-55
2021/03/13 16:13:16;;;;;;;8.88;2.33;;;17.40;62.60;;;;;;10457075;28;20095;-56
2021/03/13 16:18:17;;;;;;;10.48;2.03;;;17.40;62.60;;;;;;10455972;28;20500;-56
2021/03/13 16:23:17;;;;;;;7.25;2.20;;;17.40;62.30;;;;;;10456434;28;20060;-55
2021/03/13 16:28:19;;;;;;;9.38;1.77;;;17.40;62.20;;;;;;10475660;28;20052;-56
2021/03/13 16:33:20;;;;;;;7.72;1.95;;;17.40;61.90;;;;;;10454940;28;20333;-55
2021/03/13 16:38:21;;;;;;;11.05;2.10;;;17.50;62.40;;;;;;10456036;28;20040;-57
2021/03/13 16:43:22;;;;;;;6.43;1.67;;;17.60;62.20;;;;;;10453989;28;20025;-57
2021/03/13 16:48:22;;;;;;;9.10;1.80;;;17.60;62.10;;;;;;10474042;28;20557;-57
2021/03/13 16:53:23;;;;;;;11.15;2.10;;;17.70;62.50;;;;;;10456073;28;20131;-61
2021/03/13 16:58:24;;;;;;;10.27;2.95;;;17.70;62.50;;;;;;10471828;28;20071;-58
2021/03/13 17:03:24;;;;;;;16.30;2.42;;;17.70;62.00;;;;;;10472041;28;20052;-58
2021/03/13 17:08:25;;;;;;;14.77;4.15;;;17.70;60.90;;;;;;10473128;28;20079;-59
2021/03/13 17:13:26;;;;;;;8.50;1.98;;;17.70;61.30;;;;;;10459177;28;20120;-57
2021/03/13 17:18:26;;;;;;;6.63;1.50;;;17.70;61.30;;;;;;10460076;28;20116;-56
2021/03/13 17:23:27;;;;;;;5.07;1.30;;;17.80;63.90;;;;;;10453435;28;20024;-59
2021/03/13 17:28:28;;;;;;;7.57;1.23;;;17.80;63.60;;;;;;10473957;28;20112;-58
2021/03/13 17:33:28;;;;;;;8.60;1.90;;;17.90;63.70;;;;;;10454776;28;20040;-57
2021/03/13 17:38:29;;;;;;;11.82;2.58;;;17.90;63.50;;;;;;10478221;28;20105;-59
2021/03/13 17:43:30;;;;;;;9.00;2.03;;;17.90;63.30;;;;;;10483340;28;20334;-56
2021/03/13 17:48:31;;;;;;;15.00;1.77;;;17.80;63.20;;;;;;10479225;28;20100;-56
2021/03/13 17:53:31;;;;;;;18.73;2.05;;;17.80;62.50;;;;;;10462357;28;20489;-56
2021/03/13 17:58:32;;;;;;;5.50;1.20;;;17.80;62.30;;;;;;10482331;28;20127;-56
2021/03/13 18:03:33;;;;;;;6.40;1.10;;;17.80;62.40;;;;;;10504406;28;20051;-56
2021/03/13 18:08:33;;;;;;;19.55;2.03;;;17.80;62.40;;;;;;10484951;28;20033;-55
2021/03/13 18:13:34;;;;;;;19.25;2.10;;;17.70;62.60;;;;;;10494479;28;20110;-55
2021/03/13 18:18:36;;;;;;;12.27;1.80;;;17.70;62.80;;;;;;10497894;28;20033;-56
2021/03/13 18:23:37;;;;;;;9.40;2.00;;;17.70;62.80;;;;;;10491832;28;20041;-55
2021/03/13 18:28:38;;;;;;;7.00;1.00;;;17.60;62.60;;;;;;10480444;28;20440;-56
2021/03/13 18:33:39;;;;;;;8.68;1.10;;;17.60;62.80;;;;;;10465407;28;20119;-56
2021/03/13 18:38:40;;;;;;;19.02;3.78;;;17.60;62.90;;;;;;10480350;28;20074;-56
2021/03/13 18:43:40;;;;;;;10.52;2.47;;;17.60;63.20;;;;;;10482681;28;20017;-56
2021/03/13 18:48:41;;;;;;;8.38;2.00;;;17.60;63.20;;;;;;10470891;28;20060;-56
2021/03/13 18:53:42;;;;;;;10.18;1.27;;;17.70;63.20;;;;;;10467429;28;20067;-56
2021/03/13 18:58:43;;;;;;;5.60;1.48;;;17.70;63.50;;;;;;10478967;28;20037;-56
2021/03/13 19:03:43;;;;;;;9.50;1.35;;;17.70;63.60;;;;;;10472909;28;20056;-57
2021/03/13 19:08:45;;;;;;;8.10;1.40;;;17.70;64.00;;;;;;10475725;28;20072;-56
2021/03/13 19:13:46;;;;;;;5.57;1.52;;;17.70;64.30;;;;;;10468532;28;20068;-56
2021/03/13 19:18:46;;;;;;;5.25;1.30;;;17.70;63.90;;;;;;10471574;28;20072;-56
2021/03/13 19:23:47;;;;;;;6.82;0.77;;;17.70;64.00;;;;;;10475429;28;20067;-59
2021/03/13 19:28:48;;;;;;;7.75;1.15;;;17.70;63.90;;;;;;10477764;28;20127;-57
2021/03/13 19:33:48;;;;;;;4.35;0.70;;;17.70;63.80;;;;;;10474042;28;20059;-58
2021/03/13 19:38:49;;;;;;;6.43;1.15;;;17.80;63.90;;;;;;10479243;28;20509;-58
2021/03/13 19:43:50;;;;;;;4.00;0.80;;;17.70;63.80;;;;;;10475584;28;20083;-58
2021/03/13 19:48:51;;;;;;;5.85;1.20;;;17.70;63.80;;;;;;10476956;28;20044;-58
2021/03/13 19:53:51;;;;;;;1.95;0.80;;;17.70;63.90;;;;;;10471604;28;20107;-57
2021/03/13 19:58:52;;;;;;;2.05;0.77;;;17.70;63.90;;;;;;10470939;28;20072;-57
2021/03/13 20:03:53;;;;;;;1.70;0.85;;;17.70;64.40;;;;;;10482907;28;20117;-57
2021/03/13 20:08:54;;;;;;;3.83;0.73;;;17.60;64.40;;;;;;10490773;28;20099;-58
2021/03/13 20:13:58;;;;;;;3.28;1.00;;;17.60;64.50;;;;;;10455625;28;20073;-59
2021/03/13 20:18:59;;;;;;;4.25;0.70;;;17.60;64.50;;;;;;10470646;28;20040;-58
2021/03/13 20:24:00;;;;;;;3.65;0.80;;;17.60;64.20;;;;;;10470468;28;20516;-56
2021/03/13 20:29:02;;;;;;;4.38;0.63;;;17.60;63.80;;;;;;10471476;28;20025;-55
2021/03/13 20:34:03;;;;;;;2.65;0.60;;;17.60;63.40;;;;;;10462044;28;20037;-56
2021/03/13 20:39:04;;;;;;;2.28;1.15;;;17.70;63.20;;;;;;10457278;28;20394;-55
2021/03/13 20:44:05;;;;;;;3.83;0.60;;;17.60;63.00;;;;;;10463783;28;20429;-55
2021/03/13 20:49:05;;;;;;;4.60;0.85;;;17.60;62.90;;;;;;10494386;28;20033;-56
2021/03/13 20:54:07;;;;;;;2.67;0.73;;;17.60;62.90;;;;;;10470255;28;20068;-55
2021/03/13 20:59:08;;;;;;;2.60;0.60;;;17.50;62.90;;;;;;10470074;28;20458;-55
2021/03/13 21:04:09;;;;;;;6.75;0.60;;;17.60;62.90;;;;;;10462504;28;20104;-55
2021/03/13 21:09:10;;;;;;;2.95;0.68;;;17.50;62.80;;;;;;10491007;28;20478;-55
2021/03/13 21:14:10;;;;;;;1.83;0.68;;;17.60;63.40;;;;;;10478023;28;20076;-55
2021/03/13 21:19:11;;;;;;;2.38;0.60;;;17.60;62.60;;;;;;10468889;28;20040;-55
2021/03/13 21:24:12;;;;;;;3.63;1.10;;;17.60;62.50;;;;;;10494851;28;20025;-55
2021/03/13 21:29:13;;;;;;;2.10;0.50;;;17.60;62.30;;;;;;10467837;28;20035;-55
2021/03/13 21:34:13;;;;;;;3.13;0.88;;;17.60;62.20;;;;;;10454398;28;20087;-55
2021/03/13 21:39:15;;;;;;;2.63;0.90;;;17.60;62.20;;;;;;10475770;28;20089;-55
2021/03/13 21:44:16;;;;;;;1.45;0.50;;;17.60;62.00;;;;;;10462781;28;20067;-55
2021/03/13 21:49:18;;;;;;;4.38;0.50;;;17.60;61.90;;;;;;10478044;28;20419;-55
2021/03/13 21:54:18;;;;;;;2.58;0.60;;;17.60;62.00;;;;;;10457493;28;20037;-56
2021/03/13 21:59:20;;;;;;;3.70;0.90;;;17.60;61.80;;;;;;10479521;28;20101;-55
2021/03/13 22:04:20;;;;;;;2.22;0.40;;;17.70;61.60;;;;;;10462446;28;20025;-55
2021/03/13 22:09:21;;;;;;;2.10;0.40;;;17.70;61.50;;;;;;10469506;28;20111;-55
2021/03/13 22:14:22;;;;;;;2.63;0.60;;;17.70;61.40;;;;;;10495014;28;20048;-55
2021/03/13 22:19:22;;;;;;;2.88;0.82;;;17.70;61.30;;;;;;10464521;28;20119;-55
2021/03/13 22:24:23;;;;;;;1.30;0.40;;;17.70;61.10;;;;;;10491110;28;20081;-55
2021/03/13 22:29:24;;;;;;;1.23;0.45;;;17.80;61.20;;;;;;10473298;28;20032;-55
2021/03/13 22:34:24;;;;;;;3.17;0.65;;;17.80;61.10;;;;;;10461911;28;20432;-55
2021/03/13 22:39:26;;;;;;;2.13;0.50;;;17.80;61.10;;;;;;10483236;28;20040;-55
2021/03/13 22:44:26;;;;;;;3.38;0.75;;;17.80;61.00;;;;;;10499722;28;20025;-55
2021/03/13 22:49:27;;;;;;;1.55;0.47;;;17.80;60.90;;;;;;10471605;28;20037;-55
2021/03/13 22:54:28;;;;;;;0.85;0.50;;;17.80;60.90;;;;;;10486329;28;20028;-56
2021/03/13 22:59:29;;;;;;;3.67;0.73;;;17.80;60.80;;;;;;10472220;28;20071;-55
2021/03/13 23:04:29;;;;;;;1.67;0.40;;;17.80;61.40;;;;;;10459455;28;20029;-55
2021/03/13 23:09:30;;;;;;;2.05;0.50;;;17.80;60.70;;;;;;10475158;28;20106;-55
2021/03/13 23:14:31;;;;;;;1.80;0.52;;;17.80;60.70;;;;;;10465683;28;20049;-55
2021/03/13 23:19:31;;;;;;;0.80;0.30;;;17.80;60.70;;;;;;10478282;28;20039;-55
2021/03/13 23:24:32;;;;;;;3.22;0.40;;;17.80;60.60;;;;;;10500204;28;20021;-56
2021/03/13 23:29:33;;;;;;;0.82;0.30;;;17.80;60.60;;;;;;10469568;28;20033;-55
2021/03/13 23:34:34;;;;;;;0.65;0.38;;;17.80;60.50;;;;;;10457723;28;20036;-55
2021/03/13 23:39:35;;;;;;;1.02;0.40;;;17.80;60.50;;;;;;10481522;28;20040;-55
2021/03/13 23:44:36;;;;;;;0.93;0.45;;;17.80;60.40;;;;;;10499256;28;20091;-55
2021/03/13 23:49:36;;;;;;;2.83;0.85;;;17.80;60.30;;;;;;10480723;28;20056;-55
2021/03/13 23:54:37;;;;;;;0.82;0.30;;;17.80;60.20;;;;;;10457989;28;20542;-55
2021/03/13 23:59:38;;;;;;;0.60;0.22;;;17.90;60.20;;;;;;10484076;28;20197;-55
